Time;durP1;ratioP1;P1;durP2;ratioP2;P2;SDS_P1;SDS_P2;PMS_P1;PMS_P2;Temp;Humidity;BMP_temperature;BMP_pressure;BME280_temperature;BME280_humidity;BME280_pressure;Samples;Min_cycle;Max_cycle;Signal;HPM_P1;HPM_P2
2021/06/11 00:01:43;;;;;;;4.67;2.90;;;18.20;99.90;;;;;;5090186;28;20373;-84
2021/06/11 00:04:08;;;;;;;3.50;3.17;;;18.20;99.90;;;;;;5072279;28;20365;-86
2021/06/11 00:06:35;;;;;;;3.37;3.07;;;18.10;99.90;;;;;;5072401;28;20434;-85
2021/06/11 00:09:02;;;;;;;3.80;3.10;;;18.00;99.90;;;;;;5089555;28;20463;-82
2021/06/11 00:11:27;;;;;;;3.38;2.92;;;18.00;99.90;;;;;;5090218;28;20396;-83
2021/06/11 00:13:53;;;;;;;3.90;3.07;;;18.00;99.90;;;;;;5090052;28;20434;-84
2021/06/11 00:16:19;;;;;;;3.53;2.75;;;17.90;99.90;;;;;;5090384;28;20364;-86
2021/06/11 00:18:45;;;;;;;7.25;3.10;;;17.90;99.90;;;;;;5091237;28;20433;-85
2021/06/11 00:21:10;;;;;;;3.60;2.90;;;17.90;99.90;;;;;;5090502;28;20797;-85
2021/06/11 00:23:36;;;;;;;3.15;2.85;;;17.90;99.90;;;;;;5090225;28;20384;-86
2021/06/11 00:26:01;;;;;;;2.97;2.77;;;18.00;99.90;;;;;;5090036;28;20384;-86
2021/06/11 00:28:27;;;;;;;3.75;2.97;;;17.90;99.90;;;;;;5090159;28;20398;-85
2021/06/11 00:30:52;;;;;;;4.17;2.63;;;17.90;99.90;;;;;;5089808;28;21179;-80
2021/06/11 00:33:18;;;;;;;3.38;2.75;;;17.90;99.90;;;;;;5090006;28;20505;-83
2021/06/11 00:35:44;;;;;;;3.27;2.97;;;17.90;99.90;;;;;;5089572;28;20380;-81
2021/06/11 00:38:09;;;;;;;3.28;2.72;;;17.90;99.90;;;;;;5071818;28;20372;-83
2021/06/11 00:40:36;;;;;;;2.77;2.57;;;17.90;99.90;;;;;;5089460;28;20383;-84
2021/06/11 00:43:01;;;;;;;3.67;2.92;;;17.90;99.90;;;;;;5089958;28;20365;-82
2021/06/11 00:45:27;;;;;;;3.73;2.87;;;17.90;99.90;;;;;;5089470;28;20426;-82
2021/06/11 00:47:54;;;;;;;4.75;2.75;;;17.90;99.90;;;;;;5089655;28;20368;-84
2021/06/11 00:50:25;;;;;;;3.35;3.05;;;17.90;99.90;;;;;;5089325;28;20877;-85
2021/06/11 00:52:52;;;;;;;4.38;3.40;;;17.80;99.90;;;;;;5089570;28;20384;-83
2021/06/11 00:55:18;;;;;;;3.70;3.40;;;17.80;99.90;;;;;;5089311;28;20381;-86
2021/06/11 00:57:44;;;;;;;3.50;3.20;;;17.80;99.90;;;;;;5089787;28;20381;-81
2021/06/11 01:00:10;;;;;;;3.97;2.93;;;17.70;99.90;;;;;;5089741;28;20719;-88
2021/06/11 01:02:36;;;;;;;3.53;3.22;;;17.70;99.90;;;;;;5071402;28;20850;-82
2021/06/11 01:05:01;;;;;;;6.07;3.17;;;17.70;99.90;;;;;;5071383;28;20385;-82
2021/06/11 01:07:28;;;;;;;3.53;3.00;;;17.70;99.90;;;;;;5089263;28;20373;-81
2021/06/11 01:09:54;;;;;;;3.33;3.03;;;17.70;99.90;;;;;;5089250;28;20707;-83
2021/06/11 01:12:20;;;;;;;3.55;2.95;;;17.60;99.90;;;;;;5089007;28;20372;-86
2021/06/11 01:14:46;;;;;;;3.15;2.85;;;17.60;99.90;;;;;;5089549;28;20368;-84
2021/06/11 01:17:12;;;;;;;5.18;2.90;;;17.60;99.90;;;;;;5089447;28;20392;-84
2021/06/11 01:19:47;;;;;;;4.75;3.00;;;17.60;99.90;;;;;;5071054;28;20862;-82
2021/06/11 01:22:23;;;;;;;3.20;2.70;;;17.60;99.90;;;;;;5088938;28;20383;-85
2021/06/11 01:25:00;;;;;;;4.25;3.28;;;17.60;99.90;;;;;;5071395;28;20400;-85
2021/06/11 01:27:28;;;;;;;3.58;3.10;;;17.50;99.90;;;;;;5071443;28;20846;-86
2021/06/11 01:29:56;;;;;;;4.10;3.30;;;17.50;99.90;;;;;;5088990;28;20392;-84
2021/06/11 01:32:24;;;;;;;3.80;3.40;;;17.60;99.90;;;;;;5089410;28;20400;-84
2021/06/11 01:34:52;;;;;;;3.30;3.00;;;17.50;99.90;;;;;;5070691;28;20402;-80
2021/06/11 01:37:31;;;;;;;3.70;3.38;;;17.40;99.90;;;;;;5070628;28;20376;-80
2021/06/11 01:39:59;;;;;;;3.50;3.20;;;17.40;99.90;;;;;;5070886;28;20396;-88
2021/06/11 01:42:26;;;;;;;3.33;3.03;;;17.40;99.90;;;;;;5070994;28;20502;-86
2021/06/11 01:44:54;;;;;;;3.72;3.42;;;17.40;99.90;;;;;;5089074;28;20365;-84
2021/06/11 01:47:23;;;;;;;4.90;3.30;;;17.40;99.90;;;;;;5070588;28;21064;-82
2021/06/11 01:49:50;;;;;;;3.40;3.17;;;17.40;99.90;;;;;;5070687;28;20808;-83
2021/06/11 01:52:18;;;;;;;3.42;3.05;;;17.40;99.90;;;;;;5088694;28;20372;-83
2021/06/11 01:54:45;;;;;;;3.22;3.03;;;17.40;99.90;;;;;;5088830;28;20378;-84
2021/06/11 01:57:13;;;;;;;3.63;3.20;;;17.30;99.90;;;;;;5088918;28;20400;-82
2021/06/11 01:59:39;;;;;;;3.90;3.60;;;17.30;99.90;;;;;;5088562;28;20368;-81
2021/06/11 02:02:06;;;;;;;3.78;3.40;;;17.20;99.90;;;;;;5088808;28;20373;-81
2021/06/11 02:04:32;;;;;;;3.90;3.40;;;17.20;99.90;;;;;;5088574;28;20404;-80
2021/06/11 02:06:59;;;;;;;3.90;3.60;;;17.20;99.90;;;;;;5088861;28;20379;-82
2021/06/11 02:09:26;;;;;;;4.20;3.80;;;17.10;99.90;;;;;;5088800;28;20387;-85
2021/06/11 02:11:53;;;;;;;3.70;3.30;;;17.10;99.90;;;;;;5080325;28;20377;-85
2021/06/11 02:14:21;;;;;;;4.20;3.80;;;17.10;99.90;;;;;;5088748;28;20521;-81
2021/06/11 02:16:48;;;;;;;4.30;3.75;;;17.10;99.90;;;;;;5088850;28;20390;-81
2021/06/11 02:19:14;;;;;;;4.47;3.70;;;17.10;99.90;;;;;;5088977;28;20482;-82
2021/06/11 02:21:40;;;;;;;3.90;3.60;;;17.10;99.90;;;;;;5070482;28;20393;-86
2021/06/11 02:24:07;;;;;;;4.60;3.50;;;17.10;99.90;;;;;;5088423;28;20472;-86
2021/06/11 02:26:33;;;;;;;4.23;3.83;;;17.10;99.90;;;;;;5088844;28;20422;-85
2021/06/11 02:28:58;;;;;;;3.53;3.22;;;17.00;99.90;;;;;;5088583;28;20372;-85
2021/06/11 02:31:24;;;;;;;4.15;3.75;;;17.00;99.90;;;;;;5088373;28;20778;-84
2021/06/11 02:33:50;;;;;;;3.90;3.43;;;17.10;99.90;;;;;;5073975;28;20438;-85
2021/06/11 02:36:15;;;;;;;4.32;3.85;;;17.10;99.90;;;;;;5074327;28;20889;-81
2021/06/11 02:38:41;;;;;;;4.70;3.90;;;17.10;99.90;;;;;;5092162;28;20376;-81
2021/06/11 02:41:09;;;;;;;5.72;3.90;;;17.00;99.90;;;;;;5074000;28;20430;-86
2021/06/11 02:43:39;;;;;;;5.85;4.00;;;17.10;99.90;;;;;;5073725;28;20376;-80
2021/06/11 02:46:29;;;;;;;5.35;3.85;;;17.10;99.90;;;;;;5092229;28;20857;-83
2021/06/11 02:49:05;;;;;;;5.57;4.10;;;17.00;99.90;;;;;;5092220;28;20383;-81
2021/06/11 02:51:36;;;;;;;5.10;3.70;;;17.00;99.90;;;;;;5073532;28;21024;-84
2021/06/11 02:54:03;;;;;;;5.35;4.18;;;17.00;99.90;;;;;;5091833;28;20380;-82
2021/06/11 02:56:46;;;;;;;5.80;4.20;;;17.10;99.90;;;;;;5091809;28;20411;-87
2021/06/11 02:59:30;;;;;;;5.50;4.50;;;17.10;99.90;;;;;;5073819;28;20398;-82
2021/06/11 03:02:20;;;;;;;5.57;4.97;;;17.00;99.90;;;;;;5073608;28;20543;-83
2021/06/11 03:04:48;;;;;;;5.07;4.65;;;17.00;99.90;;;;;;5091669;28;20364;-86
2021/06/11 03:07:27;;;;;;;5.47;4.80;;;17.00;99.90;;;;;;5091274;28;20383;-83
2021/06/11 03:10:02;;;;;;;9.02;5.47;;;17.00;99.90;;;;;;5091429;28;20404;-84
2021/06/11 03:12:30;;;;;;;5.07;4.65;;;17.00;99.90;;;;;;5091615;28;20380;-81
2021/06/11 03:14:55;;;;;;;5.22;4.72;;;17.00;99.90;;;;;;5091702;28;20373;-84
2021/06/11 03:17:44;;;;;;;6.03;4.90;;;16.90;99.90;;;;;;5073469;28;20870;-85
2021/06/11 03:20:13;;;;;;;5.40;4.90;;;16.80;99.90;;;;;;5091221;28;20380;-83
2021/06/11 03:22:52;;;;;;;5.43;5.03;;;16.80;99.90;;;;;;5072843;28;20468;-80
2021/06/11 03:25:26;;;;;;;8.13;5.37;;;16.80;99.90;;;;;;5072807;28;20412;-83
2021/06/11 03:27:57;;;;;;;6.03;5.43;;;16.90;99.90;;;;;;5092512;28;20470;-82
2021/06/11 03:30:26;;;;;;;6.18;5.15;;;16.90;99.90;;;;;;5092574;28;20407;-85
2021/06/11 03:33:00;;;;;;;5.70;5.25;;;16.90;99.90;;;;;;5092081;28;20368;-84
2021/06/11 03:35:31;;;;;;;5.30;4.80;;;16.90;99.90;;;;;;5072989;28;20449;-82
2021/06/11 03:38:00;;;;;;;5.10;4.70;;;17.00;99.90;;;;;;5073054;28;20384;-81
2021/06/11 03:40:31;;;;;;;5.78;5.38;;;17.00;99.90;;;;;;5091406;28;20384;-85
2021/06/11 03:42:58;;;;;;;23.27;7.53;;;17.10;99.90;;;;;;5073046;28;20389;-86
2021/06/11 03:45:25;;;;;;;8.27;5.38;;;17.10;99.90;;;;;;5072694;28;20404;-84
2021/06/11 03:47:52;;;;;;;6.15;4.90;;;17.20;99.90;;;;;;5090453;28;20368;-83
2021/06/11 03:50:24;;;;;;;5.03;4.50;;;17.20;99.90;;;;;;5090429;28;20401;-85
2021/06/11 03:52:53;;;;;;;7.20;4.85;;;17.30;99.90;;;;;;5090114;28;20408;-83
2021/06/11 03:55:28;;;;;;;8.70;5.32;;;17.40;99.90;;;;;;5072879;28;20785;-83
2021/06/11 03:57:59;;;;;;;5.82;5.13;;;17.40;99.90;;;;;;5072430;28;20654;-85
2021/06/11 04:00:26;;;;;;;5.30;4.90;;;17.50;99.90;;;;;;5090656;28;20376;-85
2021/06/11 04:02:52;;;;;;;5.53;5.07;;;17.50;99.90;;;;;;5090806;28;20455;-83
2021/06/11 04:05:18;;;;;;;5.32;4.80;;;17.60;99.90;;;;;;5090472;28;20468;-83
2021/06/11 04:07:55;;;;;;;5.63;5.10;;;17.60;99.90;;;;;;5090847;28;20434;-83
2021/06/11 04:10:53;;;;;;;8.18;5.32;;;17.60;99.90;;;;;;5090436;28;20400;-83
2021/06/11 04:13:42;;;;;;;6.85;5.40;;;17.60;99.90;;;;;;5090130;28;20388;-83
2021/06/11 04:16:14;;;;;;;6.00;5.40;;;17.70;99.90;;;;;;5090390;28;20896;-84
2021/06/11 04:18:41;;;;;;;7.05;5.35;;;17.70;99.90;;;;;;5090435;28;20376;-85
2021/06/11 04:21:10;;;;;;;8.75;5.10;;;17.70;99.90;;;;;;5090137;28;20379;-83
2021/06/11 04:23:39;;;;;;;5.97;4.93;;;17.80;99.90;;;;;;5089811;28;20376;-83
2021/06/11 04:26:07;;;;;;;5.38;4.88;;;17.90;99.90;;;;;;5089821;28;20403;-81
2021/06/11 04:28:34;;;;;;;4.68;4.28;;;17.90;99.90;;;;;;5071776;28;20388;-84
2021/06/11 04:31:00;;;;;;;26.77;7.43;;;18.10;99.90;;;;;;5071558;28;20758;-84
2021/06/11 04:33:29;;;;;;;38.63;9.63;;;18.20;99.90;;;;;;5089870;28;20364;-84
2021/06/11 04:35:55;;;;;;;57.80;9.57;;;18.50;99.90;;;;;;5089877;28;20381;-85
2021/06/11 04:38:22;;;;;;;22.08;6.18;;;18.60;99.90;;;;;;5089978;28;20380;-81
2021/06/11 04:40:50;;;;;;;89.55;13.82;;;18.70;99.90;;;;;;5089812;28;20418;-81
2021/06/11 04:43:17;;;;;;;44.50;10.30;;;18.80;99.90;;;;;;5089746;28;20380;-82
2021/06/11 04:45:43;;;;;;;60.03;11.23;;;19.10;99.90;;;;;;5071621;28;20723;-87
2021/06/11 04:48:09;;;;;;;56.38;9.65;;;19.30;99.90;;;;;;5089751;28;20372;-85
2021/06/11 04:50:35;;;;;;;69.53;11.33;;;19.60;99.90;;;;;;5084785;28;20479;-84
2021/06/11 04:53:01;;;;;;;30.25;7.88;;;19.80;99.90;;;;;;5089398;28;20836;-83
2021/06/11 04:55:26;;;;;;;14.73;5.68;;;19.90;99.90;;;;;;5089254;28;20464;-86
2021/06/11 04:57:54;;;;;;;10.57;5.30;;;20.20;99.90;;;;;;5089078;28;20862;-85
2021/06/11 05:00:19;;;;;;;6.03;4.15;;;20.60;99.90;;;;;;5077255;28;20923;-85
2021/06/11 05:02:45;;;;;;;6.95;4.30;;;21.10;99.90;;;;;;5106998;28;20401;-84
2021/06/11 05:05:11;;;;;;;5.63;4.78;;;21.50;99.90;;;;;;5107811;28;20371;-83
2021/06/11 05:07:41;;;;;;;13.40;4.65;;;22.00;99.90;;;;;;5109182;28;20502;-87
2021/06/11 05:10:07;;;;;;;10.38;5.18;;;22.40;99.90;;;;;;5086763;28;20460;-85
2021/06/11 05:12:35;;;;;;;10.65;5.20;;;22.90;99.90;;;;;;5069363;28;20380;-84
2021/06/11 05:15:04;;;;;;;9.52;5.07;;;23.20;99.90;;;;;;5088172;28;20475;-84
2021/06/11 05:17:30;;;;;;;6.45;4.65;;;23.70;99.90;;;;;;5088480;28;20426;-83
2021/06/11 05:19:55;;;;;;;10.82;5.45;;;24.00;99.90;;;;;;5070373;28;20422;-86
2021/06/11 05:22:21;;;;;;;8.50;4.57;;;24.30;99.90;;;;;;5088362;28;20469;-86
2021/06/11 05:24:47;;;;;;;10.05;5.53;;;24.40;99.90;;;;;;5070419;28;20407;-86
2021/06/11 05:27:13;;;;;;;12.25;5.70;;;24.40;99.90;;;;;;5088585;28;20376;-82
2021/06/11 05:29:38;;;;;;;14.60;6.03;;;24.50;99.90;;;;;;5088486;28;20373;-83
2021/06/11 05:32:04;;;;;;;11.60;6.17;;;24.40;99.90;;;;;;5087112;28;20858;-85
2021/06/11 05:34:30;;;;;;;13.23;5.40;;;24.30;99.90;;;;;;5087454;28;21161;-83
2021/06/11 05:36:56;;;;;;;19.17;5.60;;;24.30;99.90;;;;;;5087306;28;20377;-81
2021/06/11 05:39:21;;;;;;;9.30;4.47;;;24.40;99.90;;;;;;5087977;28;20383;-86
2021/06/11 05:41:47;;;;;;;10.50;4.50;;;24.60;99.90;;;;;;5088192;28;20383;-83
2021/06/11 05:44:12;;;;;;;14.80;4.73;;;24.90;99.90;;;;;;5088479;28;20380;-83
2021/06/11 05:46:39;;;;;;;6.85;4.13;;;25.20;99.90;;;;;;5088014;28;20466;-84
2021/06/11 05:49:04;;;;;;;5.72;4.18;;;25.30;99.30;;;;;;5087814;28;20373;-84
2021/06/11 05:51:30;;;;;;;5.80;3.90;;;25.50;98.40;;;;;;5087528;28;20736;-82
2021/06/11 05:53:56;;;;;;;8.70;4.15;;;25.60;99.80;;;;;;5088016;28;20477;-84
2021/06/11 05:56:21;;;;;;;8.90;3.67;;;25.70;99.30;;;;;;5088122;28;20395;-82
2021/06/11 05:58:47;;;;;;;10.17;3.80;;;25.80;99.00;;;;;;5087806;28;20377;-83
2021/06/11 06:01:13;;;;;;;10.55;4.30;;;25.80;98.90;;;;;;5087761;28;20939;-84
2021/06/11 06:03:38;;;;;;;8.80;3.80;;;25.80;98.90;;;;;;5088118;28;20407;-82
2021/06/11 06:06:04;;;;;;;8.90;3.63;;;25.80;99.40;;;;;;5088138;28;20724;-84
2021/06/11 06:08:30;;;;;;;16.60;4.90;;;26.00;98.60;;;;;;5091535;28;20380;-83
2021/06/11 06:10:55;;;;;;;11.93;4.43;;;26.20;97.50;;;;;;5091333;28;20438;-84
2021/06/11 06:13:21;;;;;;;11.93;4.30;;;26.30;98.20;;;;;;5092041;28;20387;-81
2021/06/11 06:15:47;;;;;;;8.23;3.78;;;26.70;97.50;;;;;;5091542;28;20376;-83
2021/06/11 06:18:13;;;;;;;11.53;4.87;;;26.90;97.60;;;;;;5091547;28;20361;-85
2021/06/11 06:20:39;;;;;;;7.85;3.85;;;27.10;97.20;;;;;;5073526;28;20741;-84
2021/06/11 06:23:05;;;;;;;6.80;3.85;;;27.50;96.50;;;;;;5091568;28;20377;-83
2021/06/11 06:25:31;;;;;;;4.15;3.33;;;27.80;95.40;;;;;;5091785;28;20383;-84
2021/06/11 06:27:56;;;;;;;4.68;3.63;;;28.10;94.70;;;;;;5091124;28;20475;-84
2021/06/11 06:30:23;;;;;;;5.30;3.00;;;28.60;94.00;;;;;;5091417;28;20959;-81
2021/06/11 06:32:49;;;;;;;5.90;3.23;;;29.10;92.20;;;;;;5072687;28;20395;-81
2021/06/11 06:35:15;;;;;;;5.43;3.70;;;29.40;90.30;;;;;;5073167;28;20387;-85
2021/06/11 06:37:41;;;;;;;4.68;3.50;;;29.70;86.70;;;;;;5091261;28;20371;-83
2021/06/11 06:40:07;;;;;;;4.77;3.17;;;29.70;88.20;;;;;;5091338;28;20376;-84
2021/06/11 06:42:34;;;;;;;9.10;4.07;;;29.50;86.90;;;;;;5091603;28;20823;-84
2021/06/11 06:44:59;;;;;;;6.97;3.63;;;29.20;88.50;;;;;;5091685;28;20376;-83
2021/06/11 06:47:25;;;;;;;8.37;4.03;;;29.20;88.30;;;;;;5091745;28;20429;-80
2021/06/11 06:49:51;;;;;;;5.05;3.67;;;29.20;87.20;;;;;;5091138;28;20799;-81
2021/06/11 06:52:17;;;;;;;4.13;3.73;;;28.90;86.00;;;;;;5091024;28;20375;-82
2021/06/11 06:54:43;;;;;;;3.92;3.22;;;28.40;86.50;;;;;;5091193;28;20373;-81
2021/06/11 06:57:10;;;;;;;9.20;4.13;;;28.30;88.60;;;;;;5091064;28;20392;-82
2021/06/11 06:59:36;;;;;;;6.70;4.40;;;28.00;86.50;;;;;;5090478;28;20368;-81
2021/06/11 07:02:02;;;;;;;6.47;3.70;;;27.90;87.20;;;;;;5090972;28;20387;-80
2021/06/11 07:04:29;;;;;;;8.70;3.92;;;27.50;87.80;;;;;;5107787;28;20459;-84
2021/06/11 07:06:55;;;;;;;6.75;5.28;;;27.30;90.20;;;;;;5111641;28;20383;-82
2021/06/11 07:09:21;;;;;;;5.97;4.40;;;26.80;88.80;;;;;;5111620;28;20382;-84
2021/06/11 07:11:51;;;;;;;7.22;4.00;;;26.70;89.50;;;;;;5110805;28;20934;-85
2021/06/11 07:14:18;;;;;;;6.88;4.93;;;26.90;91.80;;;;;;5111360;28;20409;-81
2021/06/11 07:16:44;;;;;;;7.50;5.15;;;27.30;91.00;;;;;;5111358;28;20382;-82
2021/06/11 07:19:09;;;;;;;8.93;6.17;;;27.50;90.20;;;;;;5110668;28;20523;-85
2021/06/11 07:21:35;;;;;;;9.65;5.85;;;27.50;88.50;;;;;;5111017;28;20927;-80
2021/06/11 07:24:01;;;;;;;6.65;5.15;;;27.30;89.40;;;;;;5111347;28;20387;-85
2021/06/11 07:26:26;;;;;;;6.07;5.13;;;27.40;86.40;;;;;;5111314;28;21577;-82
2021/06/11 07:28:52;;;;;;;6.95;4.80;;;27.10;88.60;;;;;;5111228;28;20371;-82
2021/06/11 07:31:18;;;;;;;6.13;4.20;;;27.40;90.20;;;;;;5110625;28;20459;-82
2021/06/11 07:33:44;;;;;;;8.70;4.50;;;27.70;90.50;;;;;;5111204;28;20378;-84
2021/06/11 07:36:09;;;;;;;5.38;4.00;;;28.10;89.40;;;;;;5110505;28;20444;-84
2021/06/11 07:38:35;;;;;;;7.87;4.40;;;28.30;87.90;;;;;;5111317;28;20354;-79
2021/06/11 07:41:01;;;;;;;48.85;8.25;;;28.40;89.40;;;;;;5110446;28;20371;-83
2021/06/11 07:43:27;;;;;;;7.87;4.97;;;28.30;86.80;;;;;;5110771;28;20371;-85
2021/06/11 07:45:53;;;;;;;5.50;4.70;;;27.90;84.80;;;;;;5091171;28;20387;-81
2021/06/11 07:48:19;;;;;;;5.07;4.30;;;27.10;86.40;;;;;;5089835;28;20372;-84
2021/06/11 07:50:44;;;;;;;40.08;7.35;;;26.70;88.70;;;;;;5089849;28;20758;-79
2021/06/11 07:53:10;;;;;;;9.50;3.80;;;26.60;89.10;;;;;;5071487;28;20878;-82
2021/06/11 07:55:35;;;;;;;6.80;3.55;;;26.80;90.20;;;;;;5088411;28;20368;-79
2021/06/11 07:58:02;;;;;;;5.95;3.42;;;27.20;90.10;;;;;;5088400;28;20426;-82
2021/06/11 08:00:29;;;;;;;5.88;3.13;;;27.40;88.40;;;;;;5090128;28;20368;-81
2021/06/11 08:02:59;;;;;;;4.63;3.60;;;27.80;85.40;;;;;;5071874;28;20382;-79
2021/06/11 08:05:26;;;;;;;5.03;3.65;;;27.90;83.50;;;;;;5090346;28;20453;-80
2021/06/11 08:07:52;;;;;;;5.10;3.78;;;27.40;83.60;;;;;;5089960;28;20380;-83
2021/06/11 08:10:19;;;;;;;8.30;3.60;;;27.20;84.90;;;;;;5089809;28;20396;-82
2021/06/11 08:12:45;;;;;;;4.43;3.40;;;27.30;88.50;;;;;;5090110;28;20372;-83
2021/06/11 08:15:11;;;;;;;4.75;2.92;;;27.50;83.80;;;;;;5081880;28;20372;-85
2021/06/11 08:17:37;;;;;;;4.25;3.58;;;27.70;86.10;;;;;;5089623;28;20415;-80
2021/06/11 08:20:05;;;;;;;10.18;4.22;;;27.90;86.90;;;;;;5089952;28;20484;-82
2021/06/11 08:22:31;;;;;;;8.15;4.13;;;28.30;88.00;;;;;;5089573;28;20385;-83
2021/06/11 08:24:56;;;;;;;5.68;5.07;;;28.50;86.30;;;;;;5089780;28;21098;-83
2021/06/11 08:27:22;;;;;;;6.97;3.45;;;28.50;83.50;;;;;;5076093;28;20421;-81
2021/06/11 08:29:48;;;;;;;8.23;4.30;;;28.50;85.80;;;;;;5088485;28;20365;-81
2021/06/11 08:32:13;;;;;;;7.60;5.20;;;28.80;86.60;;;;;;5089355;28;20367;-81
2021/06/11 08:34:40;;;;;;;6.60;4.40;;;28.80;80.20;;;;;;5071024;28;20746;-80
2021/06/11 08:37:06;;;;;;;6.82;4.50;;;28.20;81.20;;;;;;5070680;28;20530;-80
2021/06/11 08:39:33;;;;;;;5.53;3.37;;;28.00;81.10;;;;;;5089107;28;21183;-83
2021/06/11 08:41:59;;;;;;;6.40;3.80;;;28.00;84.20;;;;;;5088687;28;20381;-80
2021/06/11 08:44:28;;;;;;;5.93;3.78;;;28.20;84.00;;;;;;5085210;28;20392;-79
2021/06/11 08:46:57;;;;;;;4.50;3.55;;;28.20;82.40;;;;;;5084026;28;20850;-81
2021/06/11 08:49:24;;;;;;;13.00;4.70;;;28.10;79.80;;;;;;5084729;28;20378;-82
2021/06/11 08:51:51;;;;;;;6.22;3.50;;;27.60;78.80;;;;;;5069353;28;20459;-82
2021/06/11 08:54:17;;;;;;;6.53;3.70;;;27.00;81.20;;;;;;5070320;28;20376;-79
2021/06/11 08:56:43;;;;;;;5.20;3.20;;;26.90;80.50;;;;;;5086828;28;21099;-82
2021/06/11 08:59:09;;;;;;;5.20;3.10;;;26.50;83.10;;;;;;5088470;28;20391;-81
2021/06/11 09:01:34;;;;;;;4.18;3.10;;;26.30;82.70;;;;;;5089369;28;20384;-81
2021/06/11 09:04:00;;;;;;;4.20;2.97;;;26.40;85.00;;;;;;5070657;28;20898;-81
2021/06/11 09:06:26;;;;;;;4.38;3.00;;;26.70;84.90;;;;;;5087461;28;20380;-80
2021/06/11 09:09:01;;;;;;;4.15;3.13;;;27.30;85.90;;;;;;5087448;28;20461;-80
2021/06/11 09:11:36;;;;;;;4.38;3.40;;;27.60;81.80;;;;;;5067516;28;20498;-81
2021/06/11 09:14:12;;;;;;;5.18;3.00;;;27.40;83.40;;;;;;5088643;28;21074;-81
2021/06/11 09:16:51;;;;;;;7.45;3.50;;;27.60;86.50;;;;;;5069735;28;20881;-79
2021/06/11 09:19:20;;;;;;;8.55;4.00;;;28.00;84.50;;;;;;5087803;28;20391;-81
2021/06/11 09:21:48;;;;;;;5.73;3.17;;;28.30;84.30;;;;;;5064305;28;20392;-82
2021/06/11 09:24:24;;;;;;;5.20;2.80;;;28.60;83.60;;;;;;5083603;28;20396;-83
2021/06/11 09:27:12;;;;;;;5.15;3.08;;;28.80;83.30;;;;;;5082676;28;20368;-81
2021/06/11 09:29:51;;;;;;;4.90;3.30;;;28.50;80.00;;;;;;5065518;28;20438;-81
2021/06/11 09:32:20;;;;;;;3.90;2.95;;;28.20;81.20;;;;;;5082455;28;20432;-84
2021/06/11 09:34:49;;;;;;;3.85;3.10;;;28.40;81.20;;;;;;5066666;28;20735;-81
2021/06/11 09:37:20;;;;;;;7.63;3.50;;;28.40;82.80;;;;;;5069006;28;20882;-82
2021/06/11 09:39:54;;;;;;;4.68;3.22;;;28.60;84.10;;;;;;5087184;28;20373;-83
2021/06/11 09:42:44;;;;;;;4.15;3.25;;;29.20;80.20;;;;;;5089682;28;20408;-81
2021/06/11 09:45:16;;;;;;;4.57;3.20;;;29.40;80.30;;;;;;5074547;28;20385;-81
2021/06/11 09:47:43;;;;;;;4.10;3.25;;;29.70;79.30;;;;;;5074071;28;20917;-84
2021/06/11 09:50:18;;;;;;;5.07;3.38;;;29.60;79.20;;;;;;5074694;28;20404;-82
2021/06/11 09:52:49;;;;;;;4.15;3.30;;;28.60;78.30;;;;;;5091517;28;20380;-83
2021/06/11 09:55:25;;;;;;;4.55;3.33;;;27.80;80.70;;;;;;5092395;28;20376;-82
2021/06/11 09:58:21;;;;;;;3.33;3.03;;;27.00;80.90;;;;;;5091390;28;20384;-83
2021/06/11 10:00:47;;;;;;;3.53;2.90;;;26.80;85.30;;;;;;5074859;28;20416;-83
2021/06/11 10:03:25;;;;;;;4.90;2.88;;;27.40;84.00;;;;;;5093263;28;20514;-85
2021/06/11 10:05:53;;;;;;;4.13;2.80;;;27.80;81.50;;;;;;5093189;28;20443;-85
2021/06/11 10:08:21;;;;;;;4.53;2.72;;;27.70;82.50;;;;;;5074679;28;20453;-82
2021/06/11 10:10:50;;;;;;;3.78;3.08;;;27.80;81.10;;;;;;5074680;28;21010;-87
2021/06/11 10:13:18;;;;;;;3.45;2.38;;;27.80;80.40;;;;;;5093372;28;20372;-86
2021/06/11 10:15:45;;;;;;;8.80;2.42;;;27.80;82.80;;;;;;5092637;28;21031;-82
2021/06/11 10:18:12;;;;;;;3.92;2.70;;;28.00;82.30;;;;;;5088481;28;20893;-80
2021/06/11 10:20:39;;;;;;;8.07;2.90;;;27.90;81.80;;;;;;5090529;28;20395;-82
2021/06/11 10:23:07;;;;;;;4.32;3.08;;;28.20;87.70;;;;;;5090698;28;20392;-84
2021/06/11 10:25:41;;;;;;;5.60;3.05;;;28.70;80.30;;;;;;5092241;28;20889;-83
2021/06/11 10:28:07;;;;;;;5.90;2.90;;;28.80;80.00;;;;;;5075197;28;20900;-82
2021/06/11 10:30:34;;;;;;;4.60;2.60;;;29.00;83.80;;;;;;5088473;28;20428;-82
2021/06/11 10:32:59;;;;;;;3.27;2.20;;;28.70;78.50;;;;;;5090920;28;20369;-86
2021/06/11 10:35:40;;;;;;;3.90;2.63;;;28.00;78.80;;;;;;5090795;28;20369;-80
2021/06/11 10:38:10;;;;;;;3.45;2.38;;;27.60;85.80;;;;;;5089813;28;20380;-88
2021/06/11 10:40:38;;;;;;;2.58;2.20;;;27.80;86.70;;;;;;5071228;28;20422;-85
2021/06/11 10:43:27;;;;;;;3.13;2.15;;;28.00;81.60;;;;;;5092284;28;20767;-82
2021/06/11 10:45:55;;;;;;;4.22;2.60;;;27.80;81.20;;;;;;5110991;28;20899;-87
2021/06/11 10:48:21;;;;;;;3.33;2.40;;;27.80;80.30;;;;;;5111238;28;20378;-83
2021/06/11 10:50:47;;;;;;;5.10;2.40;;;;;;;;;;5111394;28;20410;-83
2021/06/11 10:53:33;;;;;;;6.85;2.20;;;27.80;81.50;;;;;;5091515;28;20775;-82
2021/06/11 10:56:15;;;;;;;5.22;2.40;;;27.80;88.70;;;;;;5092760;28;20383;-83
2021/06/11 10:58:43;;;;;;;2.95;2.13;;;28.30;82.50;;;;;;5110938;28;20392;-84
2021/06/11 11:01:34;;;;;;;5.35;2.17;;;28.10;81.20;;;;;;5112332;28;20412;-85
2021/06/11 11:04:26;;;;;;;3.58;1.92;;;28.10;81.40;;;;;;5095571;28;20386;-79
2021/06/11 11:06:52;;;;;;;2.17;1.70;;;28.10;82.40;;;;;;5110910;28;20367;-84
2021/06/11 11:09:17;;;;;;;18.30;3.63;;;28.30;82.70;;;;;;5111537;28;20439;-82
2021/06/11 11:11:46;;;;;;;3.67;2.20;;;28.30;83.00;;;;;;5110773;28;20494;-83
2021/06/11 11:14:41;;;;;;;3.40;2.00;;;28.10;78.30;;;;;;5110775;28;20439;-82
2021/06/11 11:17:08;;;;;;;2.50;2.30;;;28.10;77.80;;;;;;5097322;28;20396;-83
2021/06/11 11:19:53;;;;;;;4.50;2.35;;;27.40;78.30;;;;;;5089816;28;20395;-82
2021/06/11 11:22:22;;;;;;;2.83;2.28;;;27.20;79.40;;;;;;5088567;28;20417;-81
2021/06/11 11:24:48;;;;;;;6.60;2.13;;;27.00;85.80;;;;;;5090241;28;20945;-85
2021/06/11 11:27:14;;;;;;;3.58;1.90;;;27.10;81.30;;;;;;5090250;28;20437;-82
2021/06/11 11:29:39;;;;;;;4.20;2.20;;;27.40;80.20;;;;;;5090651;28;20415;-83
2021/06/11 11:32:05;;;;;;;2.53;1.67;;;27.50;83.80;;;;;;5089936;28;20392;-84
2021/06/11 11:34:31;;;;;;;5.60;2.20;;;27.50;79.80;;;;;;5071655;28;20377;-82
2021/06/11 11:36:56;;;;;;;8.10;2.60;;;27.50;84.30;;;;;;5072056;28;20609;-83
2021/06/11 11:39:22;;;;;;;7.77;2.70;;;27.70;83.20;;;;;;5071358;28;20438;-83
2021/06/11 11:41:49;;;;;;;6.15;2.30;;;27.80;80.30;;;;;;5090033;28;20385;-84
2021/06/11 11:44:15;;;;;;;3.53;2.05;;;27.80;80.40;;;;;;5071264;28;20859;-80
2021/06/11 11:46:40;;;;;;;2.67;1.97;;;27.80;79.90;;;;;;5071919;28;20377;-82
2021/06/11 11:49:06;;;;;;;4.82;2.20;;;27.60;80.00;;;;;;5089936;28;20463;-84
2021/06/11 11:51:32;;;;;;;4.97;2.40;;;27.60;80.70;;;;;;5090223;28;20878;-84
2021/06/11 11:53:57;;;;;;;3.73;2.17;;;27.70;83.30;;;;;;5071486;28;20380;-84
2021/06/11 11:56:23;;;;;;;3.73;2.33;;;28.00;81.20;;;;;;5090070;28;20385;-86
2021/06/11 11:59:18;;;;;;;3.65;2.28;;;27.90;80.10;;;;;;5089085;28;20368;-88
2021/06/11 12:01:44;;;;;;;4.60;2.30;;;27.80;79.50;;;;;;5089261;28;20369;-87
2021/06/11 12:04:11;;;;;;;12.70;3.50;;;27.70;81.60;;;;;;5090280;28;20426;-85
2021/06/11 12:06:40;;;;;;;3.40;2.20;;;27.70;81.10;;;;;;5089847;28;20444;-80
2021/06/11 12:09:12;;;;;;;2.20;2.00;;;27.50;80.40;;;;;;5071799;28;20373;-83
2021/06/11 12:11:39;;;;;;;3.42;2.45;;;27.20;80.50;;;;;;5069877;28;20493;-85
2021/06/11 12:14:05;;;;;;;2.60;2.40;;;27.20;82.30;;;;;;5087193;28;20372;-81
2021/06/11 12:16:31;;;;;;;4.60;2.40;;;27.60;81.60;;;;;;5087721;28;20769;-81
2021/06/11 12:18:57;;;;;;;5.85;2.53;;;27.80;82.10;;;;;;5087753;28;21077;-83
2021/06/11 12:21:23;;;;;;;2.53;2.30;;;28.00;84.30;;;;;;5087923;28;20790;-84
2021/06/11 12:24:06;;;;;;;3.08;2.30;;;28.60;84.90;;;;;;5069749;28;20431;-87
2021/06/11 12:26:32;;;;;;;3.42;2.50;;;29.50;82.60;;;;;;5067992;28;20372;-80
2021/06/11 12:29:01;;;;;;;3.13;2.20;;;29.60;77.20;;;;;;5087476;28;20380;-85
2021/06/11 12:31:28;;;;;;;6.00;2.65;;;29.50;79.00;;;;;;5068116;28;20559;-81
2021/06/11 12:33:54;;;;;;;4.05;2.50;;;29.30;77.20;;;;;;5088318;28;20372;-82
2021/06/11 12:36:20;;;;;;;5.68;2.80;;;29.00;83.10;;;;;;5083847;28;20384;-82
2021/06/11 12:38:45;;;;;;;3.30;2.33;;;29.10;79.30;;;;;;5087768;28;20536;-86
2021/06/11 12:41:14;;;;;;;5.57;2.40;;;29.00;79.30;;;;;;5087096;28;20376;-83
2021/06/11 12:46:25;;;;;;;5.70;2.50;;;29.00;79.80;;;;;;5087984;28;20742;-84
2021/06/11 12:48:52;;;;;;;6.80;2.90;;;29.00;79.90;;;;;;5088590;28;20360;-85
2021/06/11 12:51:18;;;;;;;3.78;2.20;;;29.00;81.40;;;;;;5088889;28;20817;-86
2021/06/11 12:53:44;;;;;;;6.63;2.30;;;29.20;80.60;;;;;;5088535;28;20372;-82
2021/06/11 12:56:10;;;;;;;2.85;2.10;;;29.00;79.80;;;;;;5088626;28;20950;-84